sensor_id;sensor_type;location;lat;lon;timestamp;pressure;altitude;pressure_sealevel;temperature;humidity
17209;BME280;8720;48.488;9.202;2023-03-03T00:01:07;97163.00;;;8.37;47.84
17209;BME280;8720;48.488;9.202;2023-03-03T00:03:34;97194.16;;;8.49;47.90
17209;BME280;8720;48.488;9.202;2023-03-03T00:06:04;97180.31;;;8.44;48.04
17209;BME280;8720;48.488;9.202;2023-03-03T00:08:32;97179.50;;;8.41;47.92
17209;BME280;8720;48.488;9.202;2023-03-03T00:10:59;97181.25;;;8.40;48.09
17209;BME280;8720;48.488;9.202;2023-03-03T00:13:29;97176.06;;;8.39;47.92
17209;BME280;8720;48.488;9.202;2023-03-03T00:16:13;97177.78;;;8.38;48.09
17209;BME280;8720;48.488;9.202;2023-03-03T00:18:44;97185.63;;;8.38;48.23
17209;BME280;8720;48.488;9.202;2023-03-03T00:21:24;97192.59;;;8.36;47.87
17209;BME280;8720;48.488;9.202;2023-03-03T00:24:02;97191.75;;;8.34;48.24
17209;BME280;8720;48.488;9.202;2023-03-03T00:26:39;97177.91;;;8.31;48.17
17209;BME280;8720;48.488;9.202;2023-03-03T00:29:40;97189.13;;;8.34;48.29
17209;BME280;8720;48.488;9.202;2023-03-03T00:32:22;97182.28;;;8.27;48.04
17209;BME280;8720;48.488;9.202;2023-03-03T00:34:51;97182.22;;;8.32;48.24
17209;BME280;8720;48.488;9.202;2023-03-03T00:37:29;97169.28;;;8.21;48.25
17209;BME280;8720;48.488;9.202;2023-03-03T00:40:23;97186.53;;;8.34;48.25
17209;BME280;8720;48.488;9.202;2023-03-03T00:42:54;97189.97;;;8.36;48.15
17209;BME280;8720;48.488;9.202;2023-03-03T00:45:30;97188.22;;;8.38;48.07
17209;BME280;8720;48.488;9.202;2023-03-03T00:48:19;97188.19;;;8.40;48.10
17209;BME280;8720;48.488;9.202;2023-03-03T00:50:47;97185.59;;;8.40;48.17
17209;BME280;8720;48.488;9.202;2023-03-03T00:53:18;97191.63;;;8.42;48.39
17209;BME280;8720;48.488;9.202;2023-03-03T00:55:49;97189.84;;;8.45;48.37
17209;BME280;8720;48.488;9.202;2023-03-03T00:58:17;97188.13;;;8.46;48.09
17209;BME280;8720;48.488;9.202;2023-03-03T01:00:49;97195.06;;;8.45;48.13
17209;BME280;8720;48.488;9.202;2023-03-03T01:03:22;97188.13;;;8.46;48.35
17209;BME280;8720;48.488;9.202;2023-03-03T01:05:51;97189.84;;;8.45;48.17
17209;BME280;8720;48.488;9.202;2023-03-03T01:08:22;97186.38;;;8.45;48.13
17209;BME280;8720;48.488;9.202;2023-03-03T01:10:52;97175.19;;;8.38;48.34
17209;BME280;8720;48.488;9.202;2023-03-03T01:13:22;97181.19;;;8.43;48.20
17209;BME280;8720;48.488;9.202;2023-03-03T01:15:50;97182.94;;;8.43;48.16
17209;BME280;8720;48.488;9.202;2023-03-03T01:18:18;97159.69;;;8.29;48.05
17209;BME280;8720;48.488;9.202;2023-03-03T01:20:47;97175.09;;;8.43;48.27
17209;BME280;8720;48.488;9.202;2023-03-03T01:23:14;97180.34;;;8.41;48.10
17209;BME280;8720;48.488;9.202;2023-03-03T01:25:43;97176.03;;;8.40;48.30
17209;BME280;8720;48.488;9.202;2023-03-03T01:28:10;97173.44;;;8.37;48.14
17209;BME280;8720;48.488;9.202;2023-03-03T01:30:38;97171.75;;;8.36;48.07
17209;BME280;8720;48.488;9.202;2023-03-03T01:33:05;97174.38;;;8.35;48.31
17209;BME280;8720;48.488;9.202;2023-03-03T01:35:32;97168.31;;;8.31;48.37
17209;BME280;8720;48.488;9.202;2023-03-03T01:38:01;97176.13;;;8.31;48.33
17209;BME280;8720;48.488;9.202;2023-03-03T01:40:30;97164.00;;;8.29;48.33
17209;BME280;8720;48.488;9.202;2023-03-03T01:43:00;97180.53;;;8.29;48.31
17209;BME280;8720;48.488;9.202;2023-03-03T01:45:29;97173.56;;;8.28;48.23
17209;BME280;8720;48.488;9.202;2023-03-03T01:48:04;97168.41;;;8.25;48.34
17209;BME280;8720;48.488;9.202;2023-03-03T01:50:41;97173.63;;;8.25;48.32
17209;BME280;8720;48.488;9.202;2023-03-03T01:53:16;97167.59;;;8.17;48.52
17209;BME280;8720;48.488;9.202;2023-03-03T01:55:47;97168.44;;;8.19;48.26
17209;BME280;8720;48.488;9.202;2023-03-03T01:58:24;97163.25;;;8.16;48.40
17209;BME280;8720;48.488;9.202;2023-03-03T02:00:58;97165.97;;;8.07;48.44
17209;BME280;8720;48.488;9.202;2023-03-03T02:03:26;97165.97;;;8.08;48.40
17209;BME280;8720;48.488;9.202;2023-03-03T02:05:59;97160.84;;;8.01;48.34
17209;BME280;8720;48.488;9.202;2023-03-03T02:08:40;97158.22;;;8.02;48.32
17209;BME280;8720;48.488;9.202;2023-03-03T02:11:11;97165.22;;;7.99;48.39
17209;BME280;8720;48.488;9.202;2023-03-03T02:13:41;97172.19;;;7.95;48.62
17209;BME280;8720;48.488;9.202;2023-03-03T02:16:08;97163.53;;;7.93;48.39
17209;BME280;8720;48.488;9.202;2023-03-03T02:18:35;97165.28;;;7.91;48.46
17209;BME280;8720;48.488;9.202;2023-03-03T02:21:09;97160.97;;;7.90;48.56
17209;BME280;8720;48.488;9.202;2023-03-03T02:23:47;97163.59;;;7.89;48.53
17209;BME280;8720;48.488;9.202;2023-03-03T02:26:21;97159.25;;;7.88;48.46
17209;BME280;8720;48.488;9.202;2023-03-03T02:28:54;97162.78;;;7.84;48.65
17209;BME280;8720;48.488;9.202;2023-03-03T02:31:25;97161.91;;;7.83;48.55
17209;BME280;8720;48.488;9.202;2023-03-03T02:33:54;97157.59;;;7.82;48.48
17209;BME280;8720;48.488;9.202;2023-03-03T02:36:25;97142.84;;;7.80;48.60
17209;BME280;8720;48.488;9.202;2023-03-03T02:39:02;97147.22;;;7.78;48.67
17209;BME280;8720;48.488;9.202;2023-03-03T02:41:38;97142.03;;;7.76;48.53
17209;BME280;8720;48.488;9.202;2023-03-03T02:44:11;97140.31;;;7.77;48.66
17209;BME280;8720;48.488;9.202;2023-03-03T02:46:42;97142.91;;;7.77;48.69
17209;BME280;8720;48.488;9.202;2023-03-03T02:49:13;97138.53;;;7.77;48.61
17209;BME280;8720;48.488;9.202;2023-03-03T02:51:41;97149.81;;;7.78;48.74
17209;BME280;8720;48.488;9.202;2023-03-03T02:54:11;97142.84;;;7.80;48.71
17209;BME280;8720;48.488;9.202;2023-03-03T02:56:41;97145.47;;;7.80;48.64
17209;BME280;8720;48.488;9.202;2023-03-03T02:59:09;97138.53;;;7.80;48.74
17209;BME280;8720;48.488;9.202;2023-03-03T03:04:20;97145.44;;;7.83;48.97
17209;BME280;8720;48.488;9.202;2023-03-03T03:06:51;97149.75;;;7.84;48.61
17209;BME280;8720;48.488;9.202;2023-03-03T03:09:23;97145.41;;;7.86;48.72
17209;BME280;8720;48.488;9.202;2023-03-03T03:11:55;97151.44;;;7.88;48.86
17209;BME280;8720;48.488;9.202;2023-03-03T03:14:25;97155.75;;;7.89;48.75
17209;BME280;8720;48.488;9.202;2023-03-03T03:16:54;97152.31;;;7.90;48.83
17209;BME280;8720;48.488;9.202;2023-03-03T03:19:21;97146.19;;;7.91;48.86
17209;BME280;8720;48.488;9.202;2023-03-03T03:21:49;97147.03;;;7.93;48.78
17209;BME280;8720;48.488;9.202;2023-03-03T03:24:17;97155.69;;;7.96;48.93
17209;BME280;8720;48.488;9.202;2023-03-03T03:26:51;97162.63;;;7.97;48.89
17209;BME280;8720;48.488;9.202;2023-03-03T03:29:21;97160.88;;;7.96;48.94
17209;BME280;8720;48.488;9.202;2023-03-03T03:31:49;97160.88;;;7.99;48.89
17209;BME280;8720;48.488;9.202;2023-03-03T03:34:16;97166.06;;;8.01;48.98
17209;BME280;8720;48.488;9.202;2023-03-03T03:36:44;97165.19;;;8.02;48.82
17209;BME280;8720;48.488;9.202;2023-03-03T03:39:12;97163.44;;;8.04;48.91
17209;BME280;8720;48.488;9.202;2023-03-03T03:41:44;97167.75;;;8.05;48.73
17209;BME280;8720;48.488;9.202;2023-03-03T03:44:11;97166.88;;;8.06;48.71
17209;BME280;8720;48.488;9.202;2023-03-03T03:46:40;97165.97;;;8.07;48.82
17209;BME280;8720;48.488;9.202;2023-03-03T03:49:09;97169.47;;;8.07;48.86
17209;BME280;8720;48.488;9.202;2023-03-03T03:51:36;97176.38;;;8.08;48.80
17209;BME280;8720;48.488;9.202;2023-03-03T03:54:07;97159.09;;;8.03;48.84
17209;BME280;8720;48.488;9.202;2023-03-03T03:56:36;97172.00;;;8.12;48.96
17209;BME280;8720;48.488;9.202;2023-03-03T03:59:05;97170.28;;;8.11;48.88
17209;BME280;8720;48.488;9.202;2023-03-03T04:01:32;97169.38;;;8.12;49.03
17209;BME280;8720;48.488;9.202;2023-03-03T04:04:01;97173.75;;;8.11;48.86
17209;BME280;8720;48.488;9.202;2023-03-03T04:06:29;97167.66;;;8.12;48.88
17209;BME280;8720;48.488;9.202;2023-03-03T04:08:56;97172.88;;;8.12;48.76
17209;BME280;8720;48.488;9.202;2023-03-03T04:11:25;97176.34;;;8.13;48.85
17209;BME280;8720;48.488;9.202;2023-03-03T04:13:52;97178.03;;;8.14;48.90
17209;BME280;8720;48.488;9.202;2023-03-03T04:16:21;97155.50;;;8.10;48.86
17209;BME280;8720;48.488;9.202;2023-03-03T04:18:48;97169.34;;;8.16;48.71
17209;BME280;8720;48.488;9.202;2023-03-03T04:21:18;97171.06;;;8.16;48.99
17209;BME280;8720;48.488;9.202;2023-03-03T04:23:46;97170.22;;;8.17;48.71
17209;BME280;8720;48.488;9.202;2023-03-03T04:26:13;97168.44;;;8.19;48.65
17209;BME280;8720;48.488;9.202;2023-03-03T04:28:43;97172.75;;;8.20;48.82
17209;BME280;8720;48.488;9.202;2023-03-03T04:31:11;97158.88;;;8.21;48.91
17209;BME280;8720;48.488;9.202;2023-03-03T04:33:38;97161.50;;;8.18;48.80
17209;BME280;8720;48.488;9.202;2023-03-03T04:36:07;97161.47;;;8.21;48.65
17209;BME280;8720;48.488;9.202;2023-03-03T04:38:36;97157.13;;;8.20;48.72
17209;BME280;8720;48.488;9.202;2023-03-03T04:41:03;97164.91;;;8.21;48.71
17209;BME280;8720;48.488;9.202;2023-03-03T04:43:34;97179.72;;;8.21;48.62
17209;BME280;8720;48.488;9.202;2023-03-03T04:46:03;97180.59;;;8.18;48.80
17209;BME280;8720;48.488;9.202;2023-03-03T04:48:30;97176.28;;;8.17;48.95
17209;BME280;8720;48.488;9.202;2023-03-03T04:50:58;97179.75;;;8.16;48.75
17209;BME280;8720;48.488;9.202;2023-03-03T04:53:26;97182.38;;;8.16;48.86
17209;BME280;8720;48.488;9.202;2023-03-03T04:55:55;97182.38;;;8.16;48.90
17209;BME280;8720;48.488;9.202;2023-03-03T04:58:23;97178.06;;;8.15;48.87
17209;BME280;8720;48.488;9.202;2023-03-03T05:00:55;97185.84;;;8.17;48.96
17209;BME280;8720;48.488;9.202;2023-03-03T05:03:25;97186.69;;;8.19;49.08
17209;BME280;8720;48.488;9.202;2023-03-03T05:05:53;97185.88;;;8.15;48.86
17209;BME280;8720;48.488;9.202;2023-03-03T05:08:20;97185.78;;;8.23;48.92
17209;BME280;8720;48.488;9.202;2023-03-03T05:10:51;97185.75;;;8.21;48.91
17209;BME280;8720;48.488;9.202;2023-03-03T05:13:20;97193.59;;;8.23;48.72
17209;BME280;8720;48.488;9.202;2023-03-03T05:15:52;97184.16;;;8.13;48.58
17209;BME280;8720;48.488;9.202;2023-03-03T05:18:22;97183.19;;;8.20;48.81
17209;BME280;8720;48.488;9.202;2023-03-03T05:20:50;97189.28;;;8.20;48.80
17209;BME280;8720;48.488;9.202;2023-03-03T05:23:18;97191.06;;;8.14;48.76
17209;BME280;8720;48.488;9.202;2023-03-03T05:25:48;97195.34;;;8.21;48.77
17209;BME280;8720;48.488;9.202;2023-03-03T05:28:17;97187.50;;;8.22;48.91
17209;BME280;8720;48.488;9.202;2023-03-03T05:30:46;97192.72;;;8.22;48.79
17209;BME280;8720;48.488;9.202;2023-03-03T05:33:16;97197.94;;;8.22;48.75
17209;BME280;8720;48.488;9.202;2023-03-03T05:35:44;97210.06;;;8.23;48.80
17209;BME280;8720;48.488;9.202;2023-03-03T05:38:11;97204.84;;;8.23;48.78
17209;BME280;8720;48.488;9.202;2023-03-03T05:40:39;97203.16;;;8.22;48.90
17209;BME280;8720;48.488;9.202;2023-03-03T05:43:06;97210.09;;;8.22;48.94
17209;BME280;8720;48.488;9.202;2023-03-03T05:45:33;97213.56;;;8.22;48.79
17209;BME280;8720;48.488;9.202;2023-03-03T05:48:03;97216.19;;;8.22;48.88
17209;BME280;8720;48.488;9.202;2023-03-03T05:50:31;97210.94;;;8.24;48.81
17209;BME280;8720;48.488;9.202;2023-03-03T05:52:58;97207.50;;;8.25;48.85
17209;BME280;8720;48.488;9.202;2023-03-03T05:55:26;97210.09;;;8.27;48.76
17209;BME280;8720;48.488;9.202;2023-03-03T05:57:53;97210.94;;;8.27;48.98
17209;BME280;8720;48.488;9.202;2023-03-03T06:00:21;97212.66;;;8.28;48.87
17209;BME280;8720;48.488;9.202;2023-03-03T06:02:49;97213.53;;;8.29;48.75
17209;BME280;8720;48.488;9.202;2023-03-03T06:05:17;97219.63;;;8.29;48.88
17209;BME280;8720;48.488;9.202;2023-03-03T06:07:45;97216.97;;;8.32;48.85
17209;BME280;8720;48.488;9.202;2023-03-03T06:10:12;97219.56;;;8.32;49.02
17209;BME280;8720;48.488;9.202;2023-03-03T06:12:41;97221.28;;;8.33;49.03
17209;BME280;8720;48.488;9.202;2023-03-03T06:15:10;97224.56;;;8.50;49.47
17209;BME280;8720;48.488;9.202;2023-03-03T06:17:38;97221.97;;;8.50;48.72
17209;BME280;8720;48.488;9.202;2023-03-03T06:20:07;97230.66;;;8.48;48.87
17209;BME280;8720;48.488;9.202;2023-03-03T06:22:35;97235.00;;;8.47;48.88
17209;BME280;8720;48.488;9.202;2023-03-03T06:25:04;97236.75;;;8.48;48.83
17209;BME280;8720;48.488;9.202;2023-03-03T06:27:31;97235.00;;;8.50;48.91
17209;BME280;8720;48.488;9.202;2023-03-03T06:29:59;97226.31;;;8.48;49.00
17209;BME280;8720;48.488;9.202;2023-03-03T06:32:26;97234.06;;;8.56;48.81
17209;BME280;8720;48.488;9.202;2023-03-03T06:34:53;97236.63;;;8.57;49.11
17209;BME280;8720;48.488;9.202;2023-03-03T06:37:20;97247.00;;;8.60;48.91
17209;BME280;8720;48.488;9.202;2023-03-03T06:39:49;97231.41;;;8.57;48.72
17209;BME280;8720;48.488;9.202;2023-03-03T06:42:17;97240.94;;;8.61;48.89
17209;BME280;8720;48.488;9.202;2023-03-03T06:44:46;97243.53;;;8.61;48.95
17209;BME280;8720;48.488;9.202;2023-03-03T06:47:13;97244.38;;;8.63;49.06
17209;BME280;8720;48.488;9.202;2023-03-03T06:49:40;97246.94;;;8.66;48.81
17209;BME280;8720;48.488;9.202;2023-03-03T06:52:13;97245.25;;;8.62;48.84
17209;BME280;8720;48.488;9.202;2023-03-03T06:54:41;97263.38;;;8.73;48.93
17209;BME280;8720;48.488;9.202;2023-03-03T06:57:20;97258.97;;;8.76;48.90
17209;BME280;8720;48.488;9.202;2023-03-03T06:59:53;97258.94;;;8.78;48.81
17209;BME280;8720;48.488;9.202;2023-03-03T07:02:21;97265.88;;;8.80;48.88
17209;BME280;8720;48.488;9.202;2023-03-03T07:04:49;97270.19;;;8.81;48.81
17209;BME280;8720;48.488;9.202;2023-03-03T07:07:19;97277.19;;;8.81;48.75
17209;BME280;8720;48.488;9.202;2023-03-03T07:09:50;97280.63;;;8.81;48.99
17209;BME280;8720;48.488;9.202;2023-03-03T07:12:22;97276.31;;;8.80;48.96
17209;BME280;8720;48.488;9.202;2023-03-03T07:15:09;97287.63;;;8.81;49.05
17209;BME280;8720;48.488;9.202;2023-03-03T07:17:42;97278.91;;;8.82;49.09
17209;BME280;8720;48.488;9.202;2023-03-03T07:20:18;97285.81;;;8.86;48.96
17209;BME280;8720;48.488;9.202;2023-03-03T07:22:46;97287.50;;;8.90;48.90
17209;BME280;8720;48.488;9.202;2023-03-03T07:25:31;97282.25;;;8.91;48.82
17209;BME280;8720;48.488;9.202;2023-03-03T07:28:15;97288.28;;;8.96;48.90
17209;BME280;8720;48.488;9.202;2023-03-03T07:30:46;97283.88;;;9.00;48.95
17209;BME280;8720;48.488;9.202;2023-03-03T07:33:24;97287.28;;;9.05;48.92
17209;BME280;8720;48.488;9.202;2023-03-03T07:35:54;97292.44;;;9.09;48.74
17209;BME280;8720;48.488;9.202;2023-03-03T07:38:34;97290.63;;;9.14;48.97
17209;BME280;8720;48.488;9.202;2023-03-03T07:41:09;97286.31;;;9.13;49.01
17209;BME280;8720;48.488;9.202;2023-03-03T07:43:47;97295.72;;;9.22;48.81
17209;BME280;8720;48.488;9.202;2023-03-03T07:46:27;97302.63;;;9.26;48.79
17209;BME280;8720;48.488;9.202;2023-03-03T07:48:57;97293.00;;;9.30;48.85
17209;BME280;8720;48.488;9.202;2023-03-03T07:51:27;97300.84;;;9.31;48.58
17209;BME280;8720;48.488;9.202;2023-03-03T07:54:29;97293.84;;;9.32;48.60
17209;BME280;8720;48.488;9.202;2023-03-03T07:57:06;97305.91;;;9.40;48.72
17209;BME280;8720;48.488;9.202;2023-03-03T07:59:45;97305.84;;;9.46;48.77
17209;BME280;8720;48.488;9.202;2023-03-03T08:02:34;97307.50;;;9.50;48.56
17209;BME280;8720;48.488;9.202;2023-03-03T08:05:26;97309.16;;;9.56;48.65
17209;BME280;8720;48.488;9.202;2023-03-03T08:08:18;97308.22;;;9.60;48.71
17209;BME280;8720;48.488;9.202;2023-03-03T08:10:49;97303.81;;;9.63;49.06
17209;BME280;8720;48.488;9.202;2023-03-03T08:13:20;97303.66;;;9.72;48.67
17209;BME280;8720;48.488;9.202;2023-03-03T08:15:52;97303.56;;;9.78;48.70
17209;BME280;8720;48.488;9.202;2023-03-03T08:18:27;97299.13;;;9.85;48.62
17209;BME280;8720;48.488;9.202;2023-03-03T08:20:57;97303.31;;;9.93;48.55
17209;BME280;8720;48.488;9.202;2023-03-03T08:23:25;97298.84;;;10.00;48.49
17209;BME280;8720;48.488;9.202;2023-03-03T08:25:53;97296.09;;;10.07;48.34
17209;BME280;8720;48.488;9.202;2023-03-03T08:28:21;97300.38;;;10.13;48.26
17209;BME280;8720;48.488;9.202;2023-03-03T08:30:51;97293.31;;;10.20;48.22
17209;BME280;8720;48.488;9.202;2023-03-03T08:33:18;97288.81;;;10.28;47.96
17209;BME280;8720;48.488;9.202;2023-03-03T08:35:46;97301.72;;;10.35;48.09
17209;BME280;8720;48.488;9.202;2023-03-03T08:38:17;97292.88;;;10.42;47.85
17209;BME280;8720;48.488;9.202;2023-03-03T08:40:46;97302.34;;;10.48;47.77
17209;BME280;8720;48.488;9.202;2023-03-03T08:43:15;97304.06;;;10.50;47.73
17209;BME280;8720;48.488;9.202;2023-03-03T08:45:48;97299.63;;;10.54;47.73
17209;BME280;8720;48.488;9.202;2023-03-03T08:48:18;97303.03;;;10.57;47.59
17209;BME280;8720;48.488;9.202;2023-03-03T08:50:46;97302.03;;;10.63;47.61
17209;BME280;8720;48.488;9.202;2023-03-03T08:53:14;97302.03;;;10.64;47.85
17209;BME280;8720;48.488;9.202;2023-03-03T08:55:42;97304.38;;;10.76;47.38
17209;BME280;8720;48.488;9.202;2023-03-03T08:58:09;97307.72;;;10.84;47.50
17209;BME280;8720;48.488;9.202;2023-03-03T09:00:37;97305.72;;;10.95;47.21
17209;BME280;8720;48.488;9.202;2023-03-03T09:03:05;97305.53;;;11.06;47.06
17209;BME280;8720;48.488;9.202;2023-03-03T09:05:36;97305.28;;;11.18;46.99
17209;BME280;8720;48.488;9.202;2023-03-03T09:08:06;97307.69;;;11.27;46.84
17209;BME280;8720;48.488;9.202;2023-03-03T09:10:34;97311.78;;;11.39;46.93
17209;BME280;8720;48.488;9.202;2023-03-03T09:13:09;97310.69;;;11.47;46.75
17209;BME280;8720;48.488;9.202;2023-03-03T09:15:37;97300.28;;;11.44;46.56
17209;BME280;8720;48.488;9.202;2023-03-03T09:18:15;97306.13;;;11.57;46.61
17209;BME280;8720;48.488;9.202;2023-03-03T09:20:48;97311.28;;;11.60;46.45
17209;BME280;8720;48.488;9.202;2023-03-03T09:23:34;97319.94;;;11.63;46.45
17209;BME280;8720;48.488;9.202;2023-03-03T09:26:28;97316.38;;;11.67;46.55
17209;BME280;8720;48.488;9.202;2023-03-03T09:29:08;97319.03;;;11.66;46.25
17209;BME280;8720;48.488;9.202;2023-03-03T09:31:43;97327.78;;;11.66;46.14
17209;BME280;8720;48.488;9.202;2023-03-03T09:34:21;97326.75;;;11.72;46.37
17209;BME280;8720;48.488;9.202;2023-03-03T09:36:52;97325.66;;;11.80;46.08
17209;BME280;8720;48.488;9.202;2023-03-03T09:39:22;97325.47;;;11.90;45.99
17209;BME280;8720;48.488;9.202;2023-03-03T09:42:31;97330.53;;;11.96;45.94
17209;BME280;8720;48.488;9.202;2023-03-03T09:45:21;97335.78;;;11.96;45.75
17209;BME280;8720;48.488;9.202;2023-03-03T09:51:23;97341.00;;;11.97;45.64
17209;BME280;8720;48.488;9.202;2023-03-03T09:54:17;97341.03;;;11.96;45.46
17209;BME280;8720;48.488;9.202;2023-03-03T09:56:55;97337.56;;;11.95;45.39
17209;BME280;8720;48.488;9.202;2023-03-03T09:59:50;97336.59;;;11.98;45.41
17209;BME280;8720;48.488;9.202;2023-03-03T10:02:40;97332.03;;;12.06;45.36
17209;BME280;8720;48.488;9.202;2023-03-03T10:05:26;97341.34;;;12.17;45.38
17209;BME280;8720;48.488;9.202;2023-03-03T10:08:20;97335.84;;;12.28;45.35
17209;BME280;8720;48.488;9.202;2023-03-03T10:11:12;97339.09;;;12.37;45.04
17209;BME280;8720;48.488;9.202;2023-03-03T10:14:05;97338.16;;;12.40;44.98
17209;BME280;8720;48.488;9.202;2023-03-03T10:17:03;97335.56;;;12.40;45.06
17209;BME280;8720;48.488;9.202;2023-03-03T10:19:40;97334.63;;;12.41;44.65
17209;BME280;8720;48.488;9.202;2023-03-03T10:22:20;97331.97;;;12.42;44.67
17209;BME280;8720;48.488;9.202;2023-03-03T10:25:07;97334.53;;;12.45;44.52
17209;BME280;8720;48.488;9.202;2023-03-03T10:28:12;97331.69;;;12.53;44.69
17209;BME280;8720;48.488;9.202;2023-03-03T10:30:56;97340.22;;;12.61;44.58
17209;BME280;8720;48.488;9.202;2023-03-03T10:33:36;97340.84;;;12.69;44.39
17209;BME280;8720;48.488;9.202;2023-03-03T10:36:34;97342.53;;;12.71;44.23
17209;BME280;8720;48.488;9.202;2023-03-03T10:39:38;97338.13;;;12.73;44.40
17209;BME280;8720;48.488;9.202;2023-03-03T10:42:34;97337.84;;;12.82;44.32
17209;BME280;8720;48.488;9.202;2023-03-03T10:45:38;97333.41;;;12.86;44.29
17209;BME280;8720;48.488;9.202;2023-03-03T10:48:39;97336.69;;;12.93;44.44
17209;BME280;8720;48.488;9.202;2023-03-03T10:51:22;97337.41;;;12.99;43.97
17209;BME280;8720;48.488;9.202;2023-03-03T10:54:11;97336.28;;;13.09;43.66
17209;BME280;8720;48.488;9.202;2023-03-03T10:56:49;97335.94;;;13.20;43.95
17209;BME280;8720;48.488;9.202;2023-03-03T10:59:51;97338.28;;;13.30;43.64
17209;BME280;8720;48.488;9.202;2023-03-03T11:02:34;97344.00;;;13.43;43.54
17209;BME280;8720;48.488;9.202;2023-03-03T11:05:28;97333.13;;;13.55;43.65
17209;BME280;8720;48.488;9.202;2023-03-03T11:08:06;97333.75;;;13.63;43.03
17209;BME280;8720;48.488;9.202;2023-03-03T11:10:51;97323.31;;;13.60;43.24
17209;BME280;8720;48.488;9.202;2023-03-03T11:13:27;97330.31;;;13.61;42.86
17209;BME280;8720;48.488;9.202;2023-03-03T11:16:36;97326.19;;;13.52;43.25
17209;BME280;8720;48.488;9.202;2023-03-03T11:19:24;97321.88;;;13.50;43.27
17209;BME280;8720;48.488;9.202;2023-03-03T11:22:15;97324.50;;;13.50;43.00
17209;BME280;8720;48.488;9.202;2023-03-03T11:25:02;97318.34;;;13.51;43.48
17209;BME280;8720;48.488;9.202;2023-03-03T11:27:59;97325.31;;;13.52;43.24
17209;BME280;8720;48.488;9.202;2023-03-03T11:30:48;97329.75;;;13.51;43.13
17209;BME280;8720;48.488;9.202;2023-03-03T11:33:29;97327.13;;;13.51;43.05
17209;BME280;8720;48.488;9.202;2023-03-03T11:36:11;97324.44;;;13.53;42.93
17209;BME280;8720;48.488;9.202;2023-03-03T11:38:53;97316.63;;;13.50;42.95
17209;BME280;8720;48.488;9.202;2023-03-03T11:41:31;97319.34;;;13.47;42.82
17209;BME280;8720;48.488;9.202;2023-03-03T11:44:10;97313.09;;;13.51;42.91
17209;BME280;8720;48.488;9.202;2023-03-03T11:46:48;97312.22;;;13.50;42.75
17209;BME280;8720;48.488;9.202;2023-03-03T11:49:24;97313.34;;;13.43;42.92
17209;BME280;8720;48.488;9.202;2023-03-03T11:52:06;97303.88;;;13.38;42.94
17209;BME280;8720;48.488;9.202;2023-03-03T11:54:47;97296.06;;;13.35;42.85
17209;BME280;8720;48.488;9.202;2023-03-03T11:57:21;97299.69;;;13.32;42.97
17209;BME280;8720;48.488;9.202;2023-03-03T12:00:02;97298.75;;;13.33;43.25
17209;BME280;8720;48.488;9.202;2023-03-03T12:03:12;97290.88;;;13.33;43.35
17209;BME280;8720;48.488;9.202;2023-03-03T12:05:54;97296.81;;;13.40;43.15
17209;BME280;8720;48.488;9.202;2023-03-03T12:09:05;97298.44;;;13.44;43.32
17209;BME280;8720;48.488;9.202;2023-03-03T12:11:45;97296.41;;;13.52;43.26
17209;BME280;8720;48.488;9.202;2023-03-03T12:14:28;97287.19;;;13.66;42.90
17209;BME280;8720;48.488;9.202;2023-03-03T12:17:02;97291.09;;;13.81;42.73
17209;BME280;8720;48.488;9.202;2023-03-03T12:19:48;97303.09;;;13.90;42.86
17209;BME280;8720;48.488;9.202;2023-03-03T12:22:31;97296.53;;;14.03;42.74
17209;BME280;8720;48.488;9.202;2023-03-03T12:25:28;97294.44;;;14.12;42.61
17209;BME280;8720;48.488;9.202;2023-03-03T12:28:07;97284.53;;;14.20;42.36
17209;BME280;8720;48.488;9.202;2023-03-03T12:31:13;97279.91;;;14.28;42.43
17209;BME280;8720;48.488;9.202;2023-03-03T12:33:56;97279.44;;;14.40;42.35
17209;BME280;8720;48.488;9.202;2023-03-03T12:39:44;97271.66;;;14.62;42.00
17209;BME280;8720;48.488;9.202;2023-03-03T12:42:30;97275.56;;;14.75;41.57
17209;BME280;8720;48.488;9.202;2023-03-03T12:45:20;97276.50;;;14.74;41.30
17209;BME280;8720;48.488;9.202;2023-03-03T12:47:59;97274.81;;;14.72;41.09
17209;BME280;8720;48.488;9.202;2023-03-03T12:50:42;97274.81;;;14.72;41.36
17209;BME280;8720;48.488;9.202;2023-03-03T12:53:29;97274.66;;;14.76;41.48
17209;BME280;8720;48.488;9.202;2023-03-03T12:56:07;97276.34;;;14.79;41.19
17209;BME280;8720;48.488;9.202;2023-03-03T12:58:46;97266.59;;;14.81;41.08
17209;BME280;8720;48.488;9.202;2023-03-03T13:01:44;97267.50;;;14.80;41.18
17209;BME280;8720;48.488;9.202;2023-03-03T13:04:32;97264.94;;;14.78;41.15
17209;BME280;8720;48.488;9.202;2023-03-03T13:07:11;97262.13;;;14.83;40.95
17209;BME280;8720;48.488;9.202;2023-03-03T13:10:01;97264.78;;;14.83;40.82
17209;BME280;8720;48.488;9.202;2023-03-03T13:12:43;97261.34;;;14.81;40.85
17209;BME280;8720;48.488;9.202;2023-03-03T13:15:20;97260.53;;;14.79;40.45
17209;BME280;8720;48.488;9.202;2023-03-03T13:17:59;97226.16;;;14.58;40.64
17209;BME280;8720;48.488;9.202;2023-03-03T13:20:44;97263.38;;;14.73;40.61
17209;BME280;8720;48.488;9.202;2023-03-03T13:23:31;97251.03;;;14.75;40.83
17209;BME280;8720;48.488;9.202;2023-03-03T13:26:10;97257.19;;;14.74;40.57
17209;BME280;8720;48.488;9.202;2023-03-03T13:29:04;97250.16;;;14.74;40.85
17209;BME280;8720;48.488;9.202;2023-03-03T13:31:40;97250.91;;;14.78;40.51
17209;BME280;8720;48.488;9.202;2023-03-03T13:34:22;97257.78;;;14.82;40.44
17209;BME280;8720;48.488;9.202;2023-03-03T13:36:57;97247.97;;;14.85;40.41
17209;BME280;8720;48.488;9.202;2023-03-03T13:39:32;97260.84;;;14.93;40.41
17209;BME280;8720;48.488;9.202;2023-03-03T13:42:07;97251.19;;;14.93;40.21
17209;BME280;8720;48.488;9.202;2023-03-03T13:44:42;97253.75;;;14.95;40.30
17209;BME280;8720;48.488;9.202;2023-03-03T13:47:23;97259.03;;;14.95;40.30
17209;BME280;8720;48.488;9.202;2023-03-03T13:50:15;97251.13;;;14.95;40.47
17209;BME280;8720;48.488;9.202;2023-03-03T13:53:00;97256.16;;;15.01;40.34
17209;BME280;8720;48.488;9.202;2023-03-03T13:55:37;97244.03;;;14.97;40.11
17209;BME280;8720;48.488;9.202;2023-03-03T13:58:22;97254.09;;;15.09;40.16
17209;BME280;8720;48.488;9.202;2023-03-03T14:01:00;97251.91;;;15.20;40.27
17209;BME280;8720;48.488;9.202;2023-03-03T14:03:59;97238.56;;;15.24;40.42
17209;BME280;8720;48.488;9.202;2023-03-03T14:06:29;97237.63;;;15.25;40.10
17209;BME280;8720;48.488;9.202;2023-03-03T14:09:15;97241.13;;;15.26;39.93
17209;BME280;8720;48.488;9.202;2023-03-03T14:11:55;97234.19;;;15.23;39.77